createdAt,value
2019-02-21T00:00:55.697Z,5.02
2019-02-21T00:01:54.807Z,5.01
2019-02-21T00:02:54.827Z,5.01
2019-02-21T00:03:54.814Z,4.98
2019-02-21T00:04:55.133Z,4.98
2019-02-21T00:05:54.855Z,4.94
2019-02-21T00:06:55.183Z,4.9
2019-02-21T00:07:54.773Z,4.9
2019-02-21T00:08:55.056Z,4.86
2019-02-21T00:09:56.083Z,4.86
2019-02-21T00:10:54.804Z,4.86
2019-02-21T00:11:54.849Z,4.86
2019-02-21T00:12:55.908Z,4.84
2019-02-21T00:13:54.783Z,4.85
2019-02-21T00:14:55.096Z,4.88
2019-02-21T00:15:55.218Z,4.88
2019-02-21T00:16:55.226Z,4.86
2019-02-21T00:17:54.889Z,4.85
2019-02-21T00:18:55.475Z,4.83
2019-02-21T00:19:54.774Z,4.85
2019-02-21T00:20:55.177Z,4.85
2019-02-21T00:21:55.045Z,4.84
2019-02-21T00:22:54.839Z,4.83
2019-02-21T00:23:55.206Z,4.8
2019-02-21T00:24:54.886Z,4.81
2019-02-21T00:25:56.076Z,4.78
2019-02-21T00:26:55.724Z,4.78
2019-02-21T00:27:55.109Z,4.77
2019-02-21T00:28:55.202Z,4.73
2019-02-21T00:29:55.101Z,4.76
2019-02-21T00:30:55.600Z,4.72
2019-02-21T00:31:55.526Z,4.72
2019-02-21T00:32:55.147Z,4.71
2019-02-21T00:33:54.859Z,4.7
2019-02-21T00:34:55.078Z,4.67
2019-02-21T00:35:55.142Z,4.65
2019-02-21T00:36:55.063Z,4.64
2019-02-21T00:37:54.824Z,4.65
2019-02-21T00:38:54.778Z,4.64
2019-02-21T00:39:54.918Z,4.62
2019-02-21T00:40:54.736Z,4.65
2019-02-21T00:41:55.565Z,4.62
2019-02-21T00:42:54.861Z,4.59
2019-02-21T00:43:54.807Z,4.58
2019-02-21T00:44:54.837Z,4.53
2019-02-21T00:45:54.967Z,4.52
2019-02-21T00:46:54.865Z,4.51
2019-02-21T00:47:55.136Z,4.47
2019-02-21T00:48:56.549Z,4.48
2019-02-21T00:49:54.843Z,4.45
2019-02-21T00:50:54.734Z,4.45
2019-02-21T00:51:55.448Z,4.45
2019-02-21T00:52:55.636Z,4.41
2019-02-21T00:53:54.693Z,4.4
2019-02-21T00:54:55.199Z,4.38
2019-02-21T00:55:54.760Z,4.4
2019-02-21T00:56:54.917Z,4.4
2019-02-21T00:57:55.217Z,4.38
2019-02-21T00:58:55.217Z,4.37
2019-02-21T00:59:55.120Z,4.35
2019-02-21T01:00:54.791Z,4.37
2019-02-21T01:01:55.069Z,4.36
2019-02-21T01:02:55.170Z,4.4
2019-02-21T01:03:55.097Z,4.41
2019-02-21T01:04:54.747Z,4.42
2019-02-21T01:05:54.729Z,4.41
2019-02-21T01:06:55.144Z,4.4
2019-02-21T01:07:55.189Z,4.41
2019-02-21T01:08:56.544Z,4.4
2019-02-21T01:09:54.969Z,4.41
2019-02-21T01:10:55.452Z,4.41
2019-02-21T01:11:54.686Z,4.42
2019-02-21T01:12:54.746Z,4.44
2019-02-21T01:13:54.808Z,4.42
2019-02-21T01:14:55.552Z,4.45
2019-02-21T01:15:54.527Z,4.45
2019-02-21T01:16:54.708Z,4.41
2019-02-21T01:17:54.858Z,4.42
2019-02-21T01:18:54.664Z,4.39
2019-02-21T01:19:54.793Z,4.36
2019-02-21T01:20:55.549Z,4.33
2019-02-21T01:21:55.061Z,4.34
2019-02-21T01:22:54.947Z,4.34
2019-02-21T01:23:54.703Z,4.3
2019-02-21T01:24:55.178Z,4.33
2019-02-21T01:25:54.862Z,4.34
2019-02-21T01:26:54.675Z,4.33
2019-02-21T01:27:55.184Z,4.32
2019-02-21T01:28:54.907Z,4.27
2019-02-21T01:29:54.643Z,4.32
2019-02-21T01:30:57.609Z,4.32
2019-02-21T01:31:55.345Z,4.32
2019-02-21T01:32:54.947Z,4.32
2019-02-21T01:33:54.751Z,4.33
2019-02-21T01:34:55.219Z,4.34
2019-02-21T01:35:54.737Z,4.35
2019-02-21T01:36:56.508Z,4.39
2019-02-21T01:37:55.155Z,4.39
2019-02-21T01:38:55.401Z,4.43
2019-02-21T01:39:54.741Z,4.41
2019-02-21T01:40:55.075Z,4.42
2019-02-21T01:41:54.756Z,4.45
2019-02-21T01:42:54.656Z,4.45
2019-02-21T01:43:54.995Z,4.47
2019-02-21T01:44:54.700Z,4.47
2019-02-21T01:45:54.962Z,4.5
2019-02-21T01:46:54.732Z,4.49
2019-02-21T01:47:54.992Z,4.49
2019-02-21T01:48:55.035Z,4.5
2019-02-21T01:49:56.494Z,4.49
2019-02-21T01:50:54.607Z,4.49
2019-02-21T01:51:56.469Z,4.51
2019-02-21T01:52:54.724Z,4.49
2019-02-21T01:53:54.687Z,4.5
2019-02-21T01:54:54.684Z,4.49
2019-02-21T01:55:54.978Z,4.51
2019-02-21T01:56:56.476Z,4.48
2019-02-21T01:57:54.633Z,4.5
2019-02-21T01:58:55.598Z,4.51
2019-02-21T01:59:54.585Z,4.5
2019-02-21T02:00:54.754Z,4.52
2019-02-21T02:01:55.503Z,4.49
2019-02-21T02:02:55.112Z,4.51
2019-02-21T02:03:56.447Z,4.51
2019-02-21T02:04:55.734Z,4.5
2019-02-21T02:05:54.869Z,4.5
2019-02-21T02:06:54.852Z,4.47
2019-02-21T02:07:54.939Z,4.46
2019-02-21T02:08:54.766Z,4.47
2019-02-21T02:09:56.456Z,4.47
2019-02-21T02:10:54.971Z,4.46
2019-02-21T02:11:54.449Z,4.47
2019-02-21T02:12:54.763Z,4.47
2019-02-21T02:13:54.861Z,4.47
2019-02-21T02:14:56.504Z,4.48
2019-02-21T02:15:54.794Z,4.47
2019-02-21T02:16:54.918Z,4.48
2019-02-21T02:17:54.616Z,4.48
2019-02-21T02:18:54.689Z,4.48
2019-02-21T02:19:54.803Z,4.5
2019-02-21T02:20:54.669Z,4.48
2019-02-21T02:21:55.560Z,4.47
2019-02-21T02:22:55.464Z,4.49
2019-02-21T02:23:54.780Z,4.48
2019-02-21T02:24:55.267Z,4.49
2019-02-21T02:25:54.804Z,4.49
2019-02-21T02:26:54.979Z,4.49
2019-02-21T02:27:54.927Z,4.5
2019-02-21T02:28:56.430Z,4.49
2019-02-21T02:29:54.652Z,4.48
2019-02-21T02:30:54.665Z,4.5
2019-02-21T02:31:55.024Z,4.48
2019-02-21T02:32:54.743Z,4.49
2019-02-21T02:33:54.595Z,4.49
2019-02-21T02:34:54.667Z,4.51
2019-02-21T02:35:54.745Z,4.49
2019-02-21T02:36:55.233Z,4.49
2019-02-21T02:37:56.095Z,4.49
2019-02-21T02:38:54.605Z,4.51
2019-02-21T02:39:54.611Z,4.52
2019-02-21T02:40:55.980Z,4.51
2019-02-21T02:41:54.664Z,4.52
2019-02-21T02:42:54.684Z,4.51
2019-02-21T02:43:55.997Z,4.51
2019-02-21T02:44:55.582Z,4.51
2019-02-21T02:45:54.878Z,4.49
2019-02-21T02:46:54.898Z,4.52
2019-02-21T02:47:55.148Z,4.51
2019-02-21T02:48:55.394Z,4.47
2019-02-21T02:49:54.553Z,4.45
2019-02-21T02:50:54.629Z,4.45
2019-02-21T02:51:54.679Z,4.45
2019-02-21T02:52:54.590Z,4.44
2019-02-21T02:53:54.675Z,4.4
2019-02-21T02:54:54.612Z,4.41
2019-02-21T02:55:54.846Z,4.39
2019-02-21T02:56:55.139Z,4.38
2019-02-21T02:57:54.785Z,4.35
2019-02-21T02:58:54.851Z,4.37
2019-02-21T02:59:55.201Z,4.34
2019-02-21T03:00:55.786Z,4.35
2019-02-21T03:01:54.917Z,4.34
2019-02-21T03:02:54.750Z,4.34
2019-02-21T03:03:54.983Z,4.33
2019-02-21T03:04:54.585Z,4.33
2019-02-21T03:05:55.303Z,4.31
2019-02-21T03:06:55.543Z,4.32
2019-02-21T03:07:54.803Z,4.33
2019-02-21T03:08:54.591Z,4.29
2019-02-21T03:09:54.948Z,4.3
2019-02-21T03:10:54.573Z,4.32
2019-02-21T03:11:55.773Z,4.3
2019-02-21T03:12:55.688Z,4.3
2019-02-21T03:13:54.985Z,4.29
2019-02-21T03:14:54.527Z,4.27
2019-02-21T03:15:55.479Z,4.28
2019-02-21T03:16:54.512Z,4.27
2019-02-21T03:17:56.831Z,4.25
2019-02-21T03:18:56.332Z,4.27
2019-02-21T03:19:54.636Z,4.26
2019-02-21T03:20:54.536Z,4.25
2019-02-21T03:21:54.518Z,4.23
2019-02-21T03:22:55.404Z,4.23
2019-02-21T03:23:55.511Z,4.25
2019-02-21T03:24:54.491Z,4.23
2019-02-21T03:25:55.063Z,4.25
2019-02-21T03:26:54.865Z,4.25
2019-02-21T03:27:55.066Z,4.27
2019-02-21T03:28:54.570Z,4.27
2019-02-21T03:29:54.685Z,4.29
2019-02-21T03:30:54.649Z,4.29
2019-02-21T03:31:56.900Z,4.3
2019-02-21T03:32:54.772Z,4.3
2019-02-21T03:33:54.610Z,4.32
2019-02-21T03:34:54.770Z,4.3
2019-02-21T03:35:54.923Z,4.34
2019-02-21T03:36:54.757Z,4.31
2019-02-21T03:37:54.528Z,4.34
2019-02-21T03:38:55.534Z,4.34
2019-02-21T03:39:54.501Z,4.34
2019-02-21T03:40:54.538Z,4.35
2019-02-21T03:41:55.352Z,4.34
2019-02-21T03:42:54.894Z,4.38
2019-02-21T03:43:54.850Z,4.35
2019-02-21T03:44:54.515Z,4.35
2019-02-21T03:45:55.179Z,4.35
2019-02-21T03:46:54.572Z,4.35
2019-02-21T03:47:54.734Z,4.35
2019-02-21T03:48:54.529Z,4.35
2019-02-21T03:49:55.431Z,4.35
2019-02-21T03:50:55.460Z,4.36
2019-02-21T03:51:54.541Z,4.34
2019-02-21T03:52:54.480Z,4.34
2019-02-21T03:53:54.960Z,4.34
2019-02-21T03:54:54.901Z,4.34
2019-02-21T03:55:54.513Z,4.31
2019-02-21T03:56:54.771Z,4.35
2019-02-21T03:57:54.808Z,4.35
2019-02-21T03:58:54.487Z,4.36
2019-02-21T03:59:54.694Z,4.37
2019-02-21T04:00:54.501Z,4.41
2019-02-21T04:02:06.106Z,4.4
2019-02-21T04:02:54.649Z,4.37
2019-02-21T04:03:54.572Z,4.4
2019-02-21T04:04:54.585Z,4.39
2019-02-21T04:05:54.806Z,4.4
2019-02-21T04:06:54.973Z,4.42
2019-02-21T04:07:54.522Z,4.42
2019-02-21T04:08:54.570Z,4.43
2019-02-21T04:09:54.548Z,4.42
2019-02-21T04:10:54.801Z,4.43
2019-02-21T04:11:55.157Z,4.45
2019-02-21T04:12:56.274Z,4.42
2019-02-21T04:13:54.256Z,4.45
2019-02-21T04:14:54.263Z,4.47
2019-02-21T04:15:54.251Z,4.46
2019-02-21T04:16:54.226Z,4.48
2019-02-21T04:17:55.102Z,4.46
2019-02-21T04:18:54.685Z,4.49
2019-02-21T04:19:54.473Z,4.5
2019-02-21T04:20:54.487Z,4.53
2019-02-21T04:21:54.471Z,4.53
2019-02-21T04:22:54.473Z,4.54
2019-02-21T04:23:54.574Z,4.55
2019-02-21T04:24:54.379Z,4.57
2019-02-21T04:25:54.479Z,4.57
2019-02-21T04:26:54.421Z,4.55
2019-02-21T04:27:54.430Z,4.55
2019-02-21T04:28:54.484Z,4.56
2019-02-21T04:29:54.486Z,4.54
2019-02-21T04:30:54.591Z,4.56
2019-02-21T04:31:54.719Z,4.54
2019-02-21T04:32:55.179Z,4.54
2019-02-21T04:33:55.461Z,4.56
2019-02-21T04:34:56.271Z,4.52
2019-02-21T04:35:54.830Z,4.52
2019-02-21T04:36:54.662Z,4.53
2019-02-21T04:37:54.625Z,4.52
2019-02-21T04:38:54.563Z,4.51
2019-02-21T04:39:54.409Z,4.48
2019-02-21T04:40:54.833Z,4.48
2019-02-21T04:41:54.538Z,4.48
2019-02-21T04:42:54.831Z,4.46
2019-02-21T04:43:54.492Z,4.47
2019-02-21T04:44:54.958Z,4.45
2019-02-21T04:45:54.823Z,4.46
2019-02-21T04:46:54.701Z,4.44
2019-02-21T04:47:55.218Z,4.46
2019-02-21T04:48:54.555Z,4.44
2019-02-21T04:49:54.694Z,4.47
2019-02-21T04:50:54.827Z,4.47
2019-02-21T04:51:54.470Z,4.44
2019-02-21T04:52:54.456Z,4.47
2019-02-21T04:53:54.404Z,4.43
2019-02-21T04:54:55.339Z,4.46
2019-02-21T04:55:54.399Z,4.44
2019-02-21T04:56:54.738Z,4.48
2019-02-21T04:57:54.908Z,4.47
2019-02-21T04:58:54.407Z,4.46
2019-02-21T04:59:54.765Z,4.51
2019-02-21T05:00:56.176Z,4.48
2019-02-21T05:01:54.158Z,4.47
2019-02-21T05:02:54.196Z,4.48
2019-02-21T05:03:54.209Z,4.47
2019-02-21T05:04:54.443Z,4.48
2019-02-21T05:05:54.437Z,4.48
2019-02-21T05:06:54.538Z,4.48
2019-02-21T05:07:55.262Z,4.48
2019-02-21T05:08:54.895Z,4.48
2019-02-21T05:09:58.998Z,4.5
2019-02-21T05:10:54.424Z,4.53
2019-02-21T05:11:54.380Z,4.53
2019-02-21T05:12:54.567Z,4.55
2019-02-21T05:13:55.967Z,4.55
2019-02-21T05:14:56.236Z,4.58
2019-02-21T05:15:54.422Z,4.58
2019-02-21T05:16:55.441Z,4.58
2019-02-21T05:17:54.961Z,4.59
2019-02-21T05:18:54.861Z,4.6
2019-02-21T05:19:54.594Z,4.59
2019-02-21T05:20:55.193Z,4.57
2019-02-21T05:21:54.337Z,4.6
2019-02-21T05:22:54.436Z,4.59
2019-02-21T05:23:54.374Z,4.62
2019-02-21T05:24:54.268Z,4.6
2019-02-21T05:25:54.516Z,4.6
2019-02-21T05:26:54.662Z,4.61
2019-02-21T05:27:54.610Z,4.63
2019-02-21T05:28:54.367Z,4.64
2019-02-21T05:29:54.758Z,4.61
2019-02-21T05:30:54.456Z,4.63
2019-02-21T05:31:54.373Z,4.63
2019-02-21T05:32:54.431Z,4.65
2019-02-21T05:33:54.681Z,4.64
2019-02-21T05:34:54.405Z,4.65
2019-02-21T05:35:54.498Z,4.66
2019-02-21T05:36:54.360Z,4.66
2019-02-21T05:37:54.379Z,4.66
2019-02-21T05:38:54.910Z,4.65
2019-02-21T05:39:55.391Z,4.66
2019-02-21T05:40:56.212Z,4.66
2019-02-21T05:41:54.448Z,4.66
2019-02-21T05:42:54.351Z,4.66
2019-02-21T05:43:54.514Z,4.67
2019-02-21T05:44:54.532Z,4.66
2019-02-21T05:45:54.377Z,4.67
2019-02-21T05:46:54.257Z,4.66
2019-02-21T05:47:54.687Z,4.67
2019-02-21T05:48:54.371Z,4.7
2019-02-21T05:49:54.327Z,4.67
2019-02-21T05:50:54.755Z,4.68
2019-02-21T05:51:54.397Z,4.68
2019-02-21T05:52:54.503Z,4.69
2019-02-21T05:53:54.500Z,4.68
2019-02-21T05:54:54.507Z,4.7
2019-02-21T05:55:54.705Z,4.7
2019-02-21T05:56:54.370Z,4.69
2019-02-21T05:57:54.310Z,4.7
2019-02-21T05:58:54.253Z,4.68
2019-02-21T05:59:54.484Z,4.7
2019-02-21T06:00:55.416Z,4.71
2019-02-21T06:01:54.569Z,4.7
2019-02-21T06:02:54.748Z,4.7
2019-02-21T06:03:54.370Z,4.71
2019-02-21T06:04:54.641Z,4.73
2019-02-21T06:05:54.356Z,4.75
2019-02-21T06:06:56.192Z,4.73
2019-02-21T06:07:54.711Z,4.73
2019-02-21T06:08:54.251Z,4.76
2019-02-21T06:09:54.332Z,4.77
2019-02-21T06:10:54.706Z,4.75
2019-02-21T06:11:54.395Z,4.77
2019-02-21T06:12:54.807Z,4.77
2019-02-21T06:13:54.656Z,4.77
2019-02-21T06:14:54.730Z,4.76
2019-02-21T06:15:55.021Z,4.77
2019-02-21T06:16:56.086Z,4.77
2019-02-21T06:17:54.288Z,4.76
2019-02-21T06:18:54.541Z,4.76
2019-02-21T06:19:54.892Z,4.74
2019-02-21T06:20:54.307Z,4.74
2019-02-21T06:21:55.109Z,4.75
2019-02-21T06:22:56.084Z,4.73
2019-02-21T06:23:55.092Z,4.71
2019-02-21T06:24:54.282Z,4.7
2019-02-21T06:25:59.728Z,4.7
2019-02-21T06:26:55.497Z,4.69
2019-02-21T06:27:54.351Z,4.67
2019-02-21T06:28:54.876Z,4.69
2019-02-21T06:29:54.592Z,4.65
2019-02-21T06:30:54.206Z,4.64
2019-02-21T06:31:54.783Z,4.65
2019-02-21T06:33:05.872Z,4.64
2019-02-21T06:33:54.214Z,4.63
2019-02-21T06:34:54.490Z,4.62
2019-02-21T06:35:54.566Z,4.59
2019-02-21T06:36:54.339Z,4.61
2019-02-21T06:37:54.460Z,4.59
2019-02-21T06:38:54.423Z,4.6
2019-02-21T06:39:54.819Z,4.57
2019-02-21T06:40:54.389Z,4.57
2019-02-21T06:42:00.821Z,4.57
2019-02-21T06:42:54.228Z,4.57
2019-02-21T06:43:57.269Z,4.56
2019-02-21T06:44:56.194Z,4.54
2019-02-21T06:45:58.509Z,4.53
2019-02-21T06:46:54.220Z,4.54
2019-02-21T06:47:54.438Z,4.54
2019-02-21T06:48:54.965Z,4.56
2019-02-21T06:49:54.208Z,4.55
2019-02-21T06:50:55.885Z,4.57
2019-02-21T06:51:54.580Z,4.54
2019-02-21T06:52:54.490Z,4.54
2019-02-21T06:53:54.931Z,4.58
2019-02-21T06:54:54.334Z,4.56
2019-02-21T06:55:56.063Z,4.59
2019-02-21T06:56:54.433Z,4.57
2019-02-21T06:57:54.192Z,4.62
2019-02-21T06:58:54.376Z,4.63
2019-02-21T06:59:54.338Z,4.66
2019-02-21T07:00:54.431Z,4.7
2019-02-21T07:01:54.369Z,4.69
2019-02-21T07:02:54.691Z,4.71
2019-02-21T07:03:54.345Z,4.72
2019-02-21T07:04:57.111Z,4.71
2019-02-21T07:05:55.030Z,4.72
2019-02-21T07:06:57.197Z,4.73
2019-02-21T07:07:54.276Z,4.76
2019-02-21T07:08:54.525Z,4.75
2019-02-21T07:09:54.483Z,4.77
2019-02-21T07:11:06.902Z,4.77
2019-02-21T07:11:56.086Z,4.77
2019-02-21T07:12:54.384Z,4.77
2019-02-21T07:13:55.663Z,4.79
2019-02-21T07:14:54.265Z,4.8
2019-02-21T07:15:54.250Z,4.83
2019-02-21T07:16:54.561Z,4.8
2019-02-21T07:17:55.161Z,4.84
2019-02-21T07:18:54.585Z,4.86
2019-02-21T07:19:54.395Z,4.86
2019-02-21T07:20:54.600Z,4.89
2019-02-21T07:21:54.376Z,4.9
2019-02-21T07:22:54.409Z,4.9
2019-02-21T07:23:54.882Z,4.91
2019-02-21T07:24:54.602Z,4.91
2019-02-21T07:25:54.372Z,4.94
2019-02-21T07:26:56.013Z,4.95
2019-02-21T07:27:54.923Z,4.96
2019-02-21T07:28:54.834Z,4.98
2019-02-21T07:29:56.000Z,5
2019-02-21T07:30:54.674Z,5.01
2019-02-21T07:31:54.319Z,5.03
2019-02-21T07:32:54.162Z,5.03
2019-02-21T07:33:54.484Z,5.04
2019-02-21T07:34:54.176Z,5.09
2019-02-21T07:35:54.564Z,5.1
2019-02-21T07:36:54.486Z,5.12
2019-02-21T07:37:54.233Z,5.15
2019-02-21T07:39:21.120Z,5.16
2019-02-21T07:39:54.166Z,5.16
2019-02-21T07:40:55.342Z,5.16
2019-02-21T07:41:56.102Z,5.19
2019-02-21T07:42:54.252Z,5.2
2019-02-21T07:43:54.418Z,5.21
2019-02-21T07:44:55.580Z,5.21
2019-02-21T07:45:54.530Z,5.23
2019-02-21T07:46:54.220Z,5.28
2019-02-21T07:47:55.963Z,5.28
2019-02-21T07:48:54.141Z,5.31
2019-02-21T07:49:54.665Z,5.32
2019-02-21T07:50:55.988Z,5.34
2019-02-21T07:51:55.171Z,5.34
2019-02-21T07:53:03.258Z,5.35
2019-02-21T07:53:54.157Z,5.38
2019-02-21T07:55:02.812Z,5.4
2019-02-21T07:55:56.216Z,5.4
2019-02-21T07:56:54.196Z,5.41
2019-02-21T07:57:54.983Z,5.43
2019-02-21T07:58:54.216Z,5.45
2019-02-21T07:59:54.829Z,5.46
2019-02-21T08:00:54.534Z,5.48
2019-02-21T08:01:54.399Z,5.51
2019-02-21T08:02:55.044Z,5.5
2019-02-21T08:03:54.159Z,5.53
2019-02-21T08:04:54.282Z,5.55
2019-02-21T08:05:54.178Z,5.57
2019-02-21T08:06:56.024Z,5.58
2019-02-21T08:07:54.613Z,5.6
2019-02-21T08:08:54.154Z,5.63
2019-02-21T08:09:54.083Z,5.65
2019-02-21T08:10:54.089Z,5.67
2019-02-21T08:11:54.130Z,5.72
2019-02-21T08:12:55.924Z,5.73
2019-02-21T08:13:55.622Z,5.76
2019-02-21T08:14:56.648Z,5.78
2019-02-21T08:15:54.250Z,5.79
2019-02-21T08:16:56.459Z,5.83
2019-02-21T08:17:55.058Z,5.85
2019-02-21T08:18:54.092Z,5.88
2019-02-21T08:19:54.109Z,5.9
2019-02-21T08:20:54.249Z,5.91
2019-02-21T08:21:55.955Z,5.94
2019-02-21T08:22:54.486Z,5.96
2019-02-21T08:23:54.167Z,5.99
2019-02-21T08:24:56.901Z,5.98
2019-02-21T08:25:54.103Z,6.03
2019-02-21T08:26:54.269Z,6.05
2019-02-21T08:27:54.084Z,6.08
2019-02-21T08:28:54.052Z,6.09
2019-02-21T08:29:54.517Z,6.11
2019-02-21T08:30:54.452Z,6.15
2019-02-21T08:31:54.595Z,6.15
2019-02-21T08:32:54.112Z,6.18
2019-02-21T08:33:59.278Z,6.2
2019-02-21T08:34:54.035Z,6.21
2019-02-21T08:35:58.205Z,6.23
2019-02-21T08:36:54.834Z,6.25
2019-02-21T08:37:55.169Z,6.29
2019-02-21T08:38:54.708Z,6.29
2019-02-21T08:39:54.130Z,6.31
2019-02-21T08:40:57.515Z,6.33
2019-02-21T08:41:55.598Z,6.36
2019-02-21T08:42:54.101Z,6.38
2019-02-21T08:43:54.289Z,6.39
2019-02-21T08:44:54.132Z,6.4
2019-02-21T08:45:54.493Z,6.4
2019-02-21T08:46:54.155Z,6.42
2019-02-21T08:47:54.335Z,6.43
2019-02-21T08:48:54.660Z,6.5
2019-02-21T08:49:54.538Z,6.49
2019-02-21T08:50:54.675Z,6.5
2019-02-21T08:51:55.978Z,6.53
2019-02-21T08:52:54.107Z,6.53
2019-02-21T08:53:54.004Z,6.56
2019-02-21T08:55:01.075Z,6.56
2019-02-21T08:55:56.351Z,6.58
2019-02-21T08:56:54.294Z,6.59
2019-02-21T08:57:54.418Z,6.59
2019-02-21T08:58:54.902Z,6.63
2019-02-21T08:59:54.120Z,6.64
2019-02-21T09:00:54.907Z,6.64
2019-02-21T09:01:54.232Z,6.66
2019-02-21T09:02:54.449Z,6.7
2019-02-21T09:03:54.455Z,6.71
2019-02-21T09:04:54.393Z,6.73
2019-02-21T09:05:54.185Z,6.77
2019-02-21T09:06:54.173Z,6.77
2019-02-21T09:07:54.076Z,6.78
2019-02-21T09:08:54.201Z,6.82
2019-02-21T09:09:54.388Z,6.81
2019-02-21T09:10:54.540Z,6.84
2019-02-21T09:11:55.887Z,6.85
2019-02-21T09:12:54.303Z,6.89
2019-02-21T09:13:56.203Z,6.91
2019-02-21T09:14:54.663Z,6.91
2019-02-21T09:15:56.355Z,6.95
2019-02-21T09:16:54.121Z,6.96
2019-02-21T09:17:55.850Z,7
2019-02-21T09:18:54.339Z,7.02
2019-02-21T09:19:53.895Z,7.03
2019-02-21T09:20:54.693Z,7.03
2019-02-21T09:21:54.977Z,7.06
2019-02-21T09:22:54.168Z,7.12
2019-02-21T09:23:57.165Z,7.14
2019-02-21T09:24:54.429Z,7.18
2019-02-21T09:25:54.285Z,7.21
2019-02-21T09:26:54.063Z,7.24
2019-02-21T09:27:54.087Z,7.26
2019-02-21T09:28:59.065Z,7.28
2019-02-21T09:29:54.294Z,7.29
2019-02-21T09:30:54.219Z,7.32
2019-02-21T09:31:54.314Z,7.35
2019-02-21T09:32:54.062Z,7.4
2019-02-21T09:33:54.355Z,7.44
2019-02-21T09:34:55.828Z,7.47
2019-02-21T09:35:58.675Z,7.49
2019-02-21T09:36:54.041Z,7.55
2019-02-21T09:37:54.253Z,7.57
2019-02-21T09:38:54.473Z,7.58
2019-02-21T09:39:54.153Z,7.6
2019-02-21T09:40:54.324Z,7.64
2019-02-21T09:41:54.006Z,7.69
2019-02-21T09:42:54.264Z,7.78
2019-02-21T09:43:55.789Z,7.82
2019-02-21T09:44:54.538Z,7.84
2019-02-21T09:45:54.306Z,7.84
2019-02-21T09:46:55.780Z,7.85
2019-02-21T09:47:54.857Z,7.9
2019-02-21T09:48:54.222Z,7.94
2019-02-21T09:49:56.760Z,7.96
2019-02-21T09:50:54.100Z,8
2019-02-21T09:51:54.211Z,8.02
2019-02-21T09:52:54.251Z,8.02
2019-02-21T09:53:54.779Z,8.02
2019-02-21T09:54:53.995Z,8.03
2019-02-21T09:55:54.053Z,8.02
2019-02-21T09:56:54.391Z,8.03
2019-02-21T09:57:54.176Z,8.07
2019-02-21T09:58:53.940Z,8.09
2019-02-21T09:59:54.208Z,8.1
2019-02-21T10:00:54.419Z,8.14
2019-02-21T10:01:54.148Z,8.15
2019-02-21T10:02:57.063Z,8.16
2019-02-21T10:03:54.315Z,8.2
2019-02-21T10:05:06.081Z,8.21
2019-02-21T10:05:54.392Z,8.25
2019-02-21T10:06:53.922Z,8.28
2019-02-21T10:07:55.750Z,8.33
2019-02-21T10:08:54.813Z,8.37
2019-02-21T10:09:54.380Z,8.4
2019-02-21T10:10:54.236Z,8.45
2019-02-21T10:11:53.902Z,8.46
2019-02-21T10:12:54.140Z,8.5
2019-02-21T10:13:54.181Z,8.53
2019-02-21T10:14:54.598Z,8.56
2019-02-21T10:15:53.904Z,8.6
2019-02-21T10:16:54.222Z,8.66
2019-02-21T10:17:55.743Z,8.68
2019-02-21T10:18:53.923Z,8.71
2019-02-21T10:19:54.350Z,8.7
2019-02-21T10:20:54.741Z,8.71
2019-02-21T10:21:53.721Z,8.7
2019-02-21T10:22:54.169Z,8.7
2019-02-21T10:23:57.143Z,8.71
2019-02-21T10:24:57.418Z,8.71
2019-02-21T10:25:54.264Z,8.75
2019-02-21T10:26:55.723Z,8.76
2019-02-21T10:27:54.160Z,8.77
2019-02-21T10:28:54.898Z,8.78
2019-02-21T10:29:54.902Z,8.79
2019-02-21T10:30:55.318Z,8.8
2019-02-21T10:31:55.714Z,8.82
2019-02-21T10:32:54.271Z,8.84
2019-02-21T10:33:54.130Z,8.89
2019-02-21T10:34:53.883Z,8.89
2019-02-21T10:35:55.701Z,8.9
2019-02-21T10:36:53.824Z,8.95
2019-02-21T10:37:53.905Z,8.97
2019-02-21T10:38:54.719Z,9.02
2019-02-21T10:39:53.950Z,9.06
2019-02-21T10:40:54.069Z,9.07
2019-02-21T10:41:54.794Z,9.15
2019-02-21T10:42:54.842Z,9.18
2019-02-21T10:43:54.197Z,9.2
2019-02-21T10:44:55.710Z,9.24
2019-02-21T10:45:54.005Z,9.23
2019-02-21T10:46:55.684Z,9.27
2019-02-21T10:47:53.816Z,9.31
2019-02-21T10:48:54.058Z,9.34
2019-02-21T10:49:54.584Z,9.41
2019-02-21T10:50:54.111Z,9.43
2019-02-21T10:51:54.452Z,9.44
2019-02-21T10:52:55.073Z,9.47
2019-02-21T10:53:53.953Z,9.46
2019-02-21T10:54:53.868Z,9.51
2019-02-21T10:55:54.890Z,9.51
2019-02-21T10:56:53.892Z,9.52
2019-02-21T10:57:53.838Z,9.54
2019-02-21T10:58:54.083Z,9.51
2019-02-21T10:59:54.483Z,9.52
2019-02-21T11:00:54.181Z,9.5
2019-02-21T11:01:54.316Z,9.48
2019-02-21T11:02:54.069Z,9.49
2019-02-21T11:03:53.820Z,9.48
2019-02-21T11:04:55.530Z,9.47
2019-02-21T11:05:54.108Z,9.47
2019-02-21T11:06:54.023Z,9.44
2019-02-21T11:07:53.972Z,9.43
2019-02-21T11:08:54.284Z,9.43
2019-02-21T11:09:54.292Z,9.45
2019-02-21T11:10:54.170Z,9.42
2019-02-21T11:11:54.168Z,9.42
2019-02-21T11:12:55.647Z,9.41
2019-02-21T11:13:55.011Z,9.42
2019-02-21T11:14:54.248Z,9.43
2019-02-21T11:15:54.186Z,9.46
2019-02-21T11:16:53.822Z,9.43
2019-02-21T11:17:54.193Z,9.43
2019-02-21T11:18:54.540Z,9.43
2019-02-21T11:19:54.009Z,9.45
2019-02-21T11:20:54.008Z,9.44
2019-02-21T11:21:54.227Z,9.45
2019-02-21T11:22:54.242Z,9.46
2019-02-21T11:23:54.216Z,9.48
2019-02-21T11:24:54.315Z,9.49
2019-02-21T11:25:53.970Z,9.5
2019-02-21T11:26:53.841Z,9.5
2019-02-21T11:27:54.364Z,9.51
2019-02-21T11:28:54.087Z,9.54
2019-02-21T11:29:53.837Z,9.56
2019-02-21T11:30:53.893Z,9.57
2019-02-21T11:31:53.800Z,9.61
2019-02-21T11:32:54.050Z,9.62
2019-02-21T11:33:54.412Z,9.66
2019-02-21T11:34:53.790Z,9.68
2019-02-21T11:35:54.358Z,9.74
2019-02-21T11:36:54.124Z,9.79
2019-02-21T11:37:53.790Z,9.87
2019-02-21T11:38:54.161Z,9.96
2019-02-21T11:39:54.158Z,10.09
2019-02-21T11:40:53.887Z,10.18
2019-02-21T11:41:53.771Z,10.3
2019-02-21T11:42:54.801Z,10.4
2019-02-21T11:43:53.984Z,10.47
2019-02-21T11:44:54.089Z,10.49
2019-02-21T11:45:57.755Z,10.51
2019-02-21T11:46:53.933Z,10.57
2019-02-21T11:47:54.104Z,10.64
2019-02-21T11:48:55.603Z,10.68
2019-02-21T11:49:53.579Z,10.71
2019-02-21T11:50:53.610Z,10.72
2019-02-21T11:51:53.602Z,10.75
2019-02-21T11:52:53.581Z,10.76
2019-02-21T11:53:54.059Z,10.72
2019-02-21T11:54:53.804Z,10.67
2019-02-21T11:55:54.168Z,10.64
2019-02-21T11:56:54.816Z,10.67
2019-02-21T11:57:53.840Z,10.68
2019-02-21T11:58:54.409Z,10.69
2019-02-21T11:59:54.624Z,10.69
2019-02-21T12:00:54.096Z,10.72
2019-02-21T12:01:53.825Z,10.72
2019-02-21T12:02:55.243Z,10.74
2019-02-21T12:03:54.105Z,10.75
2019-02-21T12:04:54.122Z,10.77
2019-02-21T12:05:54.128Z,10.83
2019-02-21T12:06:53.759Z,10.84
2019-02-21T12:07:53.733Z,10.81
2019-02-21T12:08:53.777Z,10.87
2019-02-21T12:09:53.863Z,10.88
2019-02-21T12:10:53.821Z,10.9
2019-02-21T12:11:54.220Z,10.9
2019-02-21T12:12:54.226Z,10.91
2019-02-21T12:13:53.758Z,10.91
2019-02-21T12:14:54.183Z,10.94
2019-02-21T12:15:54.062Z,10.95
2019-02-21T12:16:54.197Z,10.97
2019-02-21T12:17:53.793Z,10.98
2019-02-21T12:18:54.574Z,11.01
2019-02-21T12:19:53.844Z,10.99
2019-02-21T12:20:54.618Z,10.98
2019-02-21T12:21:59.803Z,11.01
2019-02-21T12:22:53.820Z,10.99
2019-02-21T12:23:54.127Z,11.06
2019-02-21T12:24:54.154Z,11.06
2019-02-21T12:25:53.780Z,11.06
2019-02-21T12:26:53.939Z,11.06
2019-02-21T12:27:53.712Z,11.09
2019-02-21T12:28:54.083Z,11.09
2019-02-21T12:29:53.890Z,11.08
2019-02-21T12:30:53.880Z,11.1
2019-02-21T12:31:53.879Z,11.12
2019-02-21T12:32:53.705Z,11.14
2019-02-21T12:33:54.969Z,11.18
2019-02-21T12:34:53.753Z,11.19
2019-02-21T12:35:54.232Z,11.2
2019-02-21T12:36:53.955Z,11.23
2019-02-21T12:37:53.740Z,11.27
2019-02-21T12:38:54.063Z,11.27
2019-02-21T12:39:55.549Z,11.33
2019-02-21T12:40:53.518Z,11.33
2019-02-21T12:41:53.527Z,11.34
2019-02-21T12:42:53.757Z,11.37
2019-02-21T12:43:55.555Z,11.37
2019-02-21T12:44:53.692Z,11.4
2019-02-21T12:45:54.583Z,11.41
2019-02-21T12:46:53.899Z,11.46
2019-02-21T12:47:54.592Z,11.52
2019-02-21T12:48:55.504Z,11.53
2019-02-21T12:49:55.815Z,11.53
2019-02-21T12:50:53.833Z,11.56
2019-02-21T12:51:53.755Z,11.61
2019-02-21T12:52:54.151Z,11.63
2019-02-21T12:53:53.872Z,11.69
2019-02-21T12:54:55.527Z,11.76
2019-02-21T12:55:53.763Z,11.75
2019-02-21T12:56:53.747Z,11.82
2019-02-21T12:57:53.707Z,11.91
2019-02-21T12:58:53.670Z,11.98
2019-02-21T12:59:53.894Z,12.05
2019-02-21T13:00:53.837Z,12.09
2019-02-21T13:01:53.751Z,12.11
2019-02-21T13:02:53.677Z,12.15
2019-02-21T13:03:53.691Z,12.21
2019-02-21T13:04:53.751Z,12.23
2019-02-21T13:05:54.529Z,12.27
2019-02-21T13:06:53.788Z,12.28
2019-02-21T13:07:53.969Z,12.29
2019-02-21T13:08:54.153Z,12.32
2019-02-21T13:09:53.943Z,12.3
2019-02-21T13:10:53.699Z,12.3
2019-02-21T13:11:53.733Z,12.3
2019-02-21T13:12:55.522Z,12.32
2019-02-21T13:13:55.518Z,12.34
2019-02-21T13:14:54.171Z,12.33
2019-02-21T13:15:53.757Z,12.36
2019-02-21T13:16:53.969Z,12.39
2019-02-21T13:17:53.713Z,12.39
2019-02-21T13:18:53.626Z,12.38